sensor_id;sensor_type;location;lat;lon;timestamp;P1;durP1;ratioP1;P2;durP2;ratioP2
16181;SDS011;8197;51.664;7.114;2024-03-08T00:03:15;35.77;;;16.40;;
16181;SDS011;8197;51.664;7.114;2024-03-08T00:08:18;44.03;;;17.93;;
16181;SDS011;8197;51.664;7.114;2024-03-08T00:13:21;35.47;;;16.87;;
16181;SDS011;8197;51.664;7.114;2024-03-08T00:18:27;39.67;;;17.03;;
16181;SDS011;8197;51.664;7.114;2024-03-08T00:23:31;40.77;;;18.40;;
16181;SDS011;8197;51.664;7.114;2024-03-08T00:28:34;40.30;;;18.43;;
16181;SDS011;8197;51.664;7.114;2024-03-08T00:33:39;38.43;;;16.90;;
16181;SDS011;8197;51.664;7.114;2024-03-08T00:38:42;46.50;;;16.93;;
16181;SDS011;8197;51.664;7.114;2024-03-08T00:43:47;40.03;;;18.03;;
16181;SDS011;8197;51.664;7.114;2024-03-08T00:48:52;45.17;;;19.33;;
16181;SDS011;8197;51.664;7.114;2024-03-08T00:53:55;38.43;;;17.47;;
16181;SDS011;8197;51.664;7.114;2024-03-08T00:58:58;36.00;;;16.23;;
16181;SDS011;8197;51.664;7.114;2024-03-08T01:04:02;39.10;;;18.87;;
16181;SDS011;8197;51.664;7.114;2024-03-08T01:09:06;42.67;;;19.30;;
16181;SDS011;8197;51.664;7.114;2024-03-08T01:14:10;43.97;;;18.60;;
16181;SDS011;8197;51.664;7.114;2024-03-08T01:19:15;42.43;;;17.33;;
16181;SDS011;8197;51.664;7.114;2024-03-08T01:24:17;53.17;;;20.70;;
16181;SDS011;8197;51.664;7.114;2024-03-08T01:29:20;41.10;;;18.60;;
16181;SDS011;8197;51.664;7.114;2024-03-08T01:34:25;43.53;;;19.90;;
16181;SDS011;8197;51.664;7.114;2024-03-08T01:39:29;45.73;;;18.90;;
16181;SDS011;8197;51.664;7.114;2024-03-08T01:44:34;44.80;;;17.50;;
16181;SDS011;8197;51.664;7.114;2024-03-08T01:49:38;40.67;;;18.90;;
16181;SDS011;8197;51.664;7.114;2024-03-08T01:54:41;43.97;;;20.57;;
16181;SDS011;8197;51.664;7.114;2024-03-08T01:59:45;46.87;;;18.30;;
16181;SDS011;8197;51.664;7.114;2024-03-08T02:04:49;44.43;;;19.77;;
16181;SDS011;8197;51.664;7.114;2024-03-08T02:09:54;42.70;;;20.80;;
16181;SDS011;8197;51.664;7.114;2024-03-08T02:14:57;46.53;;;19.80;;
16181;SDS011;8197;51.664;7.114;2024-03-08T02:20:01;42.70;;;19.70;;
16181;SDS011;8197;51.664;7.114;2024-03-08T02:25:07;43.70;;;18.53;;
16181;SDS011;8197;51.664;7.114;2024-03-08T02:30:11;38.00;;;15.37;;
16181;SDS011;8197;51.664;7.114;2024-03-08T02:35:15;45.80;;;19.20;;
16181;SDS011;8197;51.664;7.114;2024-03-08T02:40:19;48.33;;;21.30;;
16181;SDS011;8197;51.664;7.114;2024-03-08T02:45:23;41.03;;;18.67;;
16181;SDS011;8197;51.664;7.114;2024-03-08T02:50:26;44.17;;;19.03;;
16181;SDS011;8197;51.664;7.114;2024-03-08T02:55:31;43.67;;;20.03;;
16181;SDS011;8197;51.664;7.114;2024-03-08T03:00:37;48.07;;;21.30;;
16181;SDS011;8197;51.664;7.114;2024-03-08T03:05:41;41.90;;;19.87;;
16181;SDS011;8197;51.664;7.114;2024-03-08T03:10:50;47.63;;;20.37;;
16181;SDS011;8197;51.664;7.114;2024-03-08T03:15:53;44.70;;;20.40;;
16181;SDS011;8197;51.664;7.114;2024-03-08T03:20:59;46.03;;;20.40;;
16181;SDS011;8197;51.664;7.114;2024-03-08T03:26:07;47.20;;;20.93;;
16181;SDS011;8197;51.664;7.114;2024-03-08T03:31:12;45.63;;;20.20;;
16181;SDS011;8197;51.664;7.114;2024-03-08T03:36:15;47.90;;;20.90;;
16181;SDS011;8197;51.664;7.114;2024-03-08T03:41:20;40.87;;;19.80;;
16181;SDS011;8197;51.664;7.114;2024-03-08T03:46:23;44.53;;;19.80;;
16181;SDS011;8197;51.664;7.114;2024-03-08T03:51:25;42.57;;;20.40;;
16181;SDS011;8197;51.664;7.114;2024-03-08T03:56:31;43.77;;;19.90;;
16181;SDS011;8197;51.664;7.114;2024-03-08T04:01:34;43.50;;;17.47;;
16181;SDS011;8197;51.664;7.114;2024-03-08T04:06:40;50.03;;;21.13;;
16181;SDS011;8197;51.664;7.114;2024-03-08T04:11:44;47.50;;;19.90;;
16181;SDS011;8197;51.664;7.114;2024-03-08T04:16:47;49.83;;;21.27;;
16181;SDS011;8197;51.664;7.114;2024-03-08T04:21:50;48.10;;;21.77;;
16181;SDS011;8197;51.664;7.114;2024-03-08T04:26:54;42.03;;;18.87;;
16181;SDS011;8197;51.664;7.114;2024-03-08T04:31:58;48.80;;;22.00;;
16181;SDS011;8197;51.664;7.114;2024-03-08T04:37:00;43.23;;;16.80;;
16181;SDS011;8197;51.664;7.114;2024-03-08T04:42:07;47.77;;;22.10;;
16181;SDS011;8197;51.664;7.114;2024-03-08T04:47:12;44.37;;;18.60;;
16181;SDS011;8197;51.664;7.114;2024-03-08T04:52:15;50.33;;;22.43;;
16181;SDS011;8197;51.664;7.114;2024-03-08T04:57:19;51.73;;;22.03;;
16181;SDS011;8197;51.664;7.114;2024-03-08T05:02:22;44.97;;;20.80;;
16181;SDS011;8197;51.664;7.114;2024-03-08T05:07:25;45.83;;;21.67;;
16181;SDS011;8197;51.664;7.114;2024-03-08T05:12:29;51.03;;;23.47;;
16181;SDS011;8197;51.664;7.114;2024-03-08T05:17:32;45.60;;;21.60;;
16181;SDS011;8197;51.664;7.114;2024-03-08T05:22:35;49.33;;;21.27;;
16181;SDS011;8197;51.664;7.114;2024-03-08T05:27:39;50.87;;;22.47;;
16181;SDS011;8197;51.664;7.114;2024-03-08T05:32:42;44.33;;;20.90;;
16181;SDS011;8197;51.664;7.114;2024-03-08T05:37:47;51.90;;;21.20;;
16181;SDS011;8197;51.664;7.114;2024-03-08T05:42:51;48.30;;;21.63;;
16181;SDS011;8197;51.664;7.114;2024-03-08T05:47:54;52.50;;;23.87;;
16181;SDS011;8197;51.664;7.114;2024-03-08T05:52:58;49.03;;;21.87;;
16181;SDS011;8197;51.664;7.114;2024-03-08T05:58:02;51.77;;;23.03;;
16181;SDS011;8197;51.664;7.114;2024-03-08T06:03:05;54.17;;;23.50;;
16181;SDS011;8197;51.664;7.114;2024-03-08T06:08:09;47.13;;;19.40;;
16181;SDS011;8197;51.664;7.114;2024-03-08T06:13:15;51.37;;;21.07;;
16181;SDS011;8197;51.664;7.114;2024-03-08T06:18:18;49.03;;;23.23;;
16181;SDS011;8197;51.664;7.114;2024-03-08T06:23:22;48.67;;;22.80;;
16181;SDS011;8197;51.664;7.114;2024-03-08T06:28:37;50.93;;;24.00;;
16181;SDS011;8197;51.664;7.114;2024-03-08T06:33:40;52.30;;;22.77;;
16181;SDS011;8197;51.664;7.114;2024-03-08T06:38:43;51.60;;;21.50;;
16181;SDS011;8197;51.664;7.114;2024-03-08T06:43:48;55.07;;;24.00;;
16181;SDS011;8197;51.664;7.114;2024-03-08T06:48:53;62.47;;;23.80;;
16181;SDS011;8197;51.664;7.114;2024-03-08T06:53:56;50.47;;;22.17;;
16181;SDS011;8197;51.664;7.114;2024-03-08T06:59:00;59.07;;;24.87;;
16181;SDS011;8197;51.664;7.114;2024-03-08T07:04:04;48.57;;;20.20;;
16181;SDS011;8197;51.664;7.114;2024-03-08T07:09:07;55.70;;;21.67;;
16181;SDS011;8197;51.664;7.114;2024-03-08T07:14:12;62.70;;;25.83;;
16181;SDS011;8197;51.664;7.114;2024-03-08T07:19:16;52.87;;;24.47;;
16181;SDS011;8197;51.664;7.114;2024-03-08T07:24:20;56.93;;;23.97;;
16181;SDS011;8197;51.664;7.114;2024-03-08T07:29:42;52.27;;;23.87;;
16181;SDS011;8197;51.664;7.114;2024-03-08T07:34:45;47.77;;;21.90;;
16181;SDS011;8197;51.664;7.114;2024-03-08T07:39:48;54.03;;;25.17;;
16181;SDS011;8197;51.664;7.114;2024-03-08T07:44:52;52.50;;;22.23;;
16181;SDS011;8197;51.664;7.114;2024-03-08T07:49:56;46.27;;;21.27;;
16181;SDS011;8197;51.664;7.114;2024-03-08T07:55:02;37.07;;;15.00;;
16181;SDS011;8197;51.664;7.114;2024-03-08T08:00:08;43.03;;;20.37;;
16181;SDS011;8197;51.664;7.114;2024-03-08T08:05:12;55.73;;;20.57;;
16181;SDS011;8197;51.664;7.114;2024-03-08T08:10:16;48.40;;;20.30;;
16181;SDS011;8197;51.664;7.114;2024-03-08T08:15:21;48.30;;;15.97;;
16181;SDS011;8197;51.664;7.114;2024-03-08T08:20:24;42.20;;;17.10;;
16181;SDS011;8197;51.664;7.114;2024-03-08T08:25:29;50.07;;;21.70;;
16181;SDS011;8197;51.664;7.114;2024-03-08T08:30:33;49.27;;;21.50;;
16181;SDS011;8197;51.664;7.114;2024-03-08T08:35:36;47.70;;;18.63;;
16181;SDS011;8197;51.664;7.114;2024-03-08T08:40:39;52.13;;;22.23;;
16181;SDS011;8197;51.664;7.114;2024-03-08T08:45:44;50.10;;;20.73;;
16181;SDS011;8197;51.664;7.114;2024-03-08T08:50:48;44.07;;;18.17;;
16181;SDS011;8197;51.664;7.114;2024-03-08T08:55:53;48.20;;;19.93;;
16181;SDS011;8197;51.664;7.114;2024-03-08T09:00:59;45.17;;;17.90;;
16181;SDS011;8197;51.664;7.114;2024-03-08T09:06:03;34.73;;;15.07;;
16181;SDS011;8197;51.664;7.114;2024-03-08T09:11:06;45.90;;;19.83;;
16181;SDS011;8197;51.664;7.114;2024-03-08T09:16:13;46.87;;;20.03;;
16181;SDS011;8197;51.664;7.114;2024-03-08T09:21:17;45.13;;;20.20;;
16181;SDS011;8197;51.664;7.114;2024-03-08T09:26:23;41.20;;;19.10;;
16181;SDS011;8197;51.664;7.114;2024-03-08T09:31:31;41.70;;;19.27;;
16181;SDS011;8197;51.664;7.114;2024-03-08T09:36:34;46.27;;;16.30;;
16181;SDS011;8197;51.664;7.114;2024-03-08T09:41:38;36.53;;;13.53;;
16181;SDS011;8197;51.664;7.114;2024-03-08T09:46:42;41.00;;;17.90;;
16181;SDS011;8197;51.664;7.114;2024-03-08T09:51:47;30.73;;;10.17;;
16181;SDS011;8197;51.664;7.114;2024-03-08T09:56:54;40.30;;;17.80;;
16181;SDS011;8197;51.664;7.114;2024-03-08T10:01:59;40.20;;;15.67;;
16181;SDS011;8197;51.664;7.114;2024-03-08T10:07:03;37.37;;;14.03;;
16181;SDS011;8197;51.664;7.114;2024-03-08T10:12:08;40.77;;;15.67;;
16181;SDS011;8197;51.664;7.114;2024-03-08T10:17:13;38.63;;;17.37;;
16181;SDS011;8197;51.664;7.114;2024-03-08T10:22:16;36.30;;;14.67;;
16181;SDS011;8197;51.664;7.114;2024-03-08T10:27:20;41.83;;;17.77;;
16181;SDS011;8197;51.664;7.114;2024-03-08T10:32:24;45.63;;;18.70;;
16181;SDS011;8197;51.664;7.114;2024-03-08T10:37:27;39.70;;;18.10;;
16181;SDS011;8197;51.664;7.114;2024-03-08T10:42:34;42.97;;;17.23;;
16181;SDS011;8197;51.664;7.114;2024-03-08T10:47:44;38.40;;;14.07;;
16181;SDS011;8197;51.664;7.114;2024-03-08T10:52:51;41.00;;;16.67;;
16181;SDS011;8197;51.664;7.114;2024-03-08T10:57:55;36.67;;;14.67;;
16181;SDS011;8197;51.664;7.114;2024-03-08T11:02:59;39.47;;;16.13;;
16181;SDS011;8197;51.664;7.114;2024-03-08T11:08:05;38.47;;;17.17;;
16181;SDS011;8197;51.664;7.114;2024-03-08T11:13:32;33.67;;;15.23;;
16181;SDS011;8197;51.664;7.114;2024-03-08T11:18:37;41.03;;;16.67;;
16181;SDS011;8197;51.664;7.114;2024-03-08T11:23:41;25.13;;;8.10;;
16181;SDS011;8197;51.664;7.114;2024-03-08T11:28:44;34.77;;;14.30;;
16181;SDS011;8197;51.664;7.114;2024-03-08T11:33:49;40.80;;;17.03;;
16181;SDS011;8197;51.664;7.114;2024-03-08T11:38:55;33.90;;;13.00;;
16181;SDS011;8197;51.664;7.114;2024-03-08T11:44:03;42.33;;;18.20;;
16181;SDS011;8197;51.664;7.114;2024-03-08T11:49:09;41.13;;;17.47;;
16181;SDS011;8197;51.664;7.114;2024-03-08T11:54:13;37.30;;;16.90;;
16181;SDS011;8197;51.664;7.114;2024-03-08T11:59:16;39.70;;;17.40;;
16181;SDS011;8197;51.664;7.114;2024-03-08T12:04:20;42.00;;;17.57;;
16181;SDS011;8197;51.664;7.114;2024-03-08T12:09:25;40.63;;;16.90;;
16181;SDS011;8197;51.664;7.114;2024-03-08T12:14:28;32.30;;;12.30;;
16181;SDS011;8197;51.664;7.114;2024-03-08T12:19:33;36.60;;;15.83;;
16181;SDS011;8197;51.664;7.114;2024-03-08T12:24:36;32.90;;;12.57;;
16181;SDS011;8197;51.664;7.114;2024-03-08T12:29:39;33.10;;;13.07;;
16181;SDS011;8197;51.664;7.114;2024-03-08T12:34:43;41.43;;;15.03;;
16181;SDS011;8197;51.664;7.114;2024-03-08T12:39:55;37.50;;;14.77;;
16181;SDS011;8197;51.664;7.114;2024-03-08T12:44:59;34.63;;;15.03;;
16181;SDS011;8197;51.664;7.114;2024-03-08T12:50:05;34.57;;;16.63;;
16181;SDS011;8197;51.664;7.114;2024-03-08T12:55:09;33.73;;;13.43;;
16181;SDS011;8197;51.664;7.114;2024-03-08T13:00:14;40.70;;;15.67;;
16181;SDS011;8197;51.664;7.114;2024-03-08T13:05:22;36.03;;;14.83;;
16181;SDS011;8197;51.664;7.114;2024-03-08T13:10:25;35.90;;;15.33;;
16181;SDS011;8197;51.664;7.114;2024-03-08T13:15:28;29.73;;;11.20;;
16181;SDS011;8197;51.664;7.114;2024-03-08T13:20:33;31.77;;;12.37;;
16181;SDS011;8197;51.664;7.114;2024-03-08T13:25:47;30.77;;;12.67;;
16181;SDS011;8197;51.664;7.114;2024-03-08T13:30:51;35.13;;;13.90;;
16181;SDS011;8197;51.664;7.114;2024-03-08T13:36:02;32.77;;;12.80;;
16181;SDS011;8197;51.664;7.114;2024-03-08T13:41:10;30.37;;;10.23;;
16181;SDS011;8197;51.664;7.114;2024-03-08T13:46:16;34.53;;;15.03;;
16181;SDS011;8197;51.664;7.114;2024-03-08T13:51:20;40.93;;;17.20;;
16181;SDS011;8197;51.664;7.114;2024-03-08T13:56:26;33.40;;;13.80;;
16181;SDS011;8197;51.664;7.114;2024-03-08T14:01:32;36.73;;;15.30;;
16181;SDS011;8197;51.664;7.114;2024-03-08T14:06:38;33.47;;;15.50;;
16181;SDS011;8197;51.664;7.114;2024-03-08T14:11:41;35.27;;;15.80;;
16181;SDS011;8197;51.664;7.114;2024-03-08T14:16:44;33.07;;;14.33;;
16181;SDS011;8197;51.664;7.114;2024-03-08T14:21:48;33.13;;;14.60;;
16181;SDS011;8197;51.664;7.114;2024-03-08T14:26:55;32.47;;;10.13;;
16181;SDS011;8197;51.664;7.114;2024-03-08T14:32:00;35.57;;;15.40;;
16181;SDS011;8197;51.664;7.114;2024-03-08T14:37:06;28.87;;;9.40;;
16181;SDS011;8197;51.664;7.114;2024-03-08T14:42:13;35.23;;;13.87;;
16181;SDS011;8197;51.664;7.114;2024-03-08T14:47:16;41.70;;;16.07;;
16181;SDS011;8197;51.664;7.114;2024-03-08T14:52:20;37.73;;;15.27;;
16181;SDS011;8197;51.664;7.114;2024-03-08T14:57:32;36.07;;;15.23;;
16181;SDS011;8197;51.664;7.114;2024-03-08T15:02:35;34.17;;;13.10;;
16181;SDS011;8197;51.664;7.114;2024-03-08T15:07:41;38.33;;;14.27;;
16181;SDS011;8197;51.664;7.114;2024-03-08T15:12:44;38.47;;;16.17;;
16181;SDS011;8197;51.664;7.114;2024-03-08T15:17:52;48.60;;;15.53;;
16181;SDS011;8197;51.664;7.114;2024-03-08T15:23:00;36.63;;;16.03;;
16181;SDS011;8197;51.664;7.114;2024-03-08T15:28:05;30.67;;;12.10;;
16181;SDS011;8197;51.664;7.114;2024-03-08T15:33:14;38.33;;;15.67;;
16181;SDS011;8197;51.664;7.114;2024-03-08T15:38:26;29.97;;;11.77;;
16181;SDS011;8197;51.664;7.114;2024-03-08T15:43:29;37.07;;;16.73;;
16181;SDS011;8197;51.664;7.114;2024-03-08T15:48:36;36.93;;;12.90;;
16181;SDS011;8197;51.664;7.114;2024-03-08T15:53:42;42.93;;;17.40;;
16181;SDS011;8197;51.664;7.114;2024-03-08T15:58:45;34.83;;;14.10;;
16181;SDS011;8197;51.664;7.114;2024-03-08T16:03:49;37.13;;;16.13;;
16181;SDS011;8197;51.664;7.114;2024-03-08T16:08:53;32.57;;;13.37;;
16181;SDS011;8197;51.664;7.114;2024-03-08T16:13:56;43.13;;;18.33;;
16181;SDS011;8197;51.664;7.114;2024-03-08T16:18:59;39.90;;;16.93;;
16181;SDS011;8197;51.664;7.114;2024-03-08T16:24:04;39.73;;;16.47;;
16181;SDS011;8197;51.664;7.114;2024-03-08T16:29:07;37.00;;;16.07;;
16181;SDS011;8197;51.664;7.114;2024-03-08T16:34:11;31.57;;;10.30;;
16181;SDS011;8197;51.664;7.114;2024-03-08T16:39:17;39.83;;;17.60;;
16181;SDS011;8197;51.664;7.114;2024-03-08T16:44:20;43.50;;;17.80;;
16181;SDS011;8197;51.664;7.114;2024-03-08T16:49:25;38.93;;;17.17;;
16181;SDS011;8197;51.664;7.114;2024-03-08T16:54:30;38.63;;;16.20;;
16181;SDS011;8197;51.664;7.114;2024-03-08T16:59:48;37.80;;;13.80;;
16181;SDS011;8197;51.664;7.114;2024-03-08T17:04:51;37.03;;;15.13;;
16181;SDS011;8197;51.664;7.114;2024-03-08T17:09:59;43.77;;;17.13;;
16181;SDS011;8197;51.664;7.114;2024-03-08T17:15:05;39.10;;;16.57;;
16181;SDS011;8197;51.664;7.114;2024-03-08T17:20:08;40.23;;;17.23;;
16181;SDS011;8197;51.664;7.114;2024-03-08T17:25:23;40.20;;;18.20;;
16181;SDS011;8197;51.664;7.114;2024-03-08T17:30:28;43.20;;;16.37;;
16181;SDS011;8197;51.664;7.114;2024-03-08T17:35:33;36.27;;;13.33;;
16181;SDS011;8197;51.664;7.114;2024-03-08T17:40:41;42.80;;;18.33;;
16181;SDS011;8197;51.664;7.114;2024-03-08T17:45:45;40.33;;;18.37;;
16181;SDS011;8197;51.664;7.114;2024-03-08T17:50:48;40.27;;;17.87;;
16181;SDS011;8197;51.664;7.114;2024-03-08T17:55:53;44.47;;;18.30;;
16181;SDS011;8197;51.664;7.114;2024-03-08T18:00:57;39.27;;;17.80;;
16181;SDS011;8197;51.664;7.114;2024-03-08T18:06:00;41.20;;;18.53;;
16181;SDS011;8197;51.664;7.114;2024-03-08T18:11:07;39.90;;;17.00;;
16181;SDS011;8197;51.664;7.114;2024-03-08T18:16:15;40.30;;;16.10;;
16181;SDS011;8197;51.664;7.114;2024-03-08T18:21:18;35.17;;;13.93;;
16181;SDS011;8197;51.664;7.114;2024-03-08T18:26:25;41.50;;;17.57;;
16181;SDS011;8197;51.664;7.114;2024-03-08T18:31:30;48.30;;;20.70;;
16181;SDS011;8197;51.664;7.114;2024-03-08T18:36:33;36.17;;;14.70;;
16181;SDS011;8197;51.664;7.114;2024-03-08T18:41:37;38.00;;;13.53;;
16181;SDS011;8197;51.664;7.114;2024-03-08T18:46:40;47.67;;;20.50;;
16181;SDS011;8197;51.664;7.114;2024-03-08T18:51:44;43.03;;;18.60;;
16181;SDS011;8197;51.664;7.114;2024-03-08T18:56:54;43.97;;;18.30;;
16181;SDS011;8197;51.664;7.114;2024-03-08T19:01:59;43.83;;;20.70;;
16181;SDS011;8197;51.664;7.114;2024-03-08T19:07:04;46.67;;;21.17;;
16181;SDS011;8197;51.664;7.114;2024-03-08T19:12:09;48.87;;;20.70;;
16181;SDS011;8197;51.664;7.114;2024-03-08T19:17:14;46.30;;;17.90;;
16181;SDS011;8197;51.664;7.114;2024-03-08T19:22:17;52.03;;;20.73;;
16181;SDS011;8197;51.664;7.114;2024-03-08T19:27:21;53.70;;;21.80;;
16181;SDS011;8197;51.664;7.114;2024-03-08T19:32:25;48.33;;;20.93;;
16181;SDS011;8197;51.664;7.114;2024-03-08T19:37:28;49.13;;;20.70;;
16181;SDS011;8197;51.664;7.114;2024-03-08T19:42:32;51.70;;;21.27;;
16181;SDS011;8197;51.664;7.114;2024-03-08T19:47:36;42.87;;;17.83;;
16181;SDS011;8197;51.664;7.114;2024-03-08T19:52:44;49.77;;;21.30;;
16181;SDS011;8197;51.664;7.114;2024-03-08T19:57:49;48.53;;;22.00;;
16181;SDS011;8197;51.664;7.114;2024-03-08T20:02:55;55.20;;;21.30;;
16181;SDS011;8197;51.664;7.114;2024-03-08T20:08:01;48.33;;;20.17;;
16181;SDS011;8197;51.664;7.114;2024-03-08T20:13:10;56.07;;;24.43;;
16181;SDS011;8197;51.664;7.114;2024-03-08T20:18:14;46.27;;;19.90;;
16181;SDS011;8197;51.664;7.114;2024-03-08T20:23:17;48.37;;;20.17;;
16181;SDS011;8197;51.664;7.114;2024-03-08T20:28:21;48.90;;;21.87;;
16181;SDS011;8197;51.664;7.114;2024-03-08T20:33:25;51.23;;;21.10;;
16181;SDS011;8197;51.664;7.114;2024-03-08T20:38:28;52.70;;;21.53;;
16181;SDS011;8197;51.664;7.114;2024-03-08T20:43:32;48.90;;;21.60;;
16181;SDS011;8197;51.664;7.114;2024-03-08T20:48:35;49.80;;;21.33;;
16181;SDS011;8197;51.664;7.114;2024-03-08T20:53:40;50.00;;;20.80;;
16181;SDS011;8197;51.664;7.114;2024-03-08T20:58:44;55.33;;;21.13;;
16181;SDS011;8197;51.664;7.114;2024-03-08T21:03:47;50.53;;;21.90;;
16181;SDS011;8197;51.664;7.114;2024-03-08T21:08:50;58.30;;;22.60;;
16181;SDS011;8197;51.664;7.114;2024-03-08T21:13:54;48.90;;;20.63;;
16181;SDS011;8197;51.664;7.114;2024-03-08T21:18:57;53.77;;;22.30;;
16181;SDS011;8197;51.664;7.114;2024-03-08T21:24:00;56.13;;;23.73;;
16181;SDS011;8197;51.664;7.114;2024-03-08T21:29:08;52.50;;;19.37;;
16181;SDS011;8197;51.664;7.114;2024-03-08T21:34:11;51.70;;;22.23;;
16181;SDS011;8197;51.664;7.114;2024-03-08T21:39:14;52.60;;;22.97;;
16181;SDS011;8197;51.664;7.114;2024-03-08T21:44:18;53.67;;;21.47;;
16181;SDS011;8197;51.664;7.114;2024-03-08T21:49:21;56.07;;;23.67;;
16181;SDS011;8197;51.664;7.114;2024-03-08T21:54:24;58.60;;;24.70;;
16181;SDS011;8197;51.664;7.114;2024-03-08T21:59:29;57.10;;;23.67;;
16181;SDS011;8197;51.664;7.114;2024-03-08T22:04:32;55.37;;;22.80;;
16181;SDS011;8197;51.664;7.114;2024-03-08T22:09:36;52.40;;;22.17;;
16181;SDS011;8197;51.664;7.114;2024-03-08T22:14:41;57.03;;;24.57;;
16181;SDS011;8197;51.664;7.114;2024-03-08T22:19:44;54.77;;;23.00;;
16181;SDS011;8197;51.664;7.114;2024-03-08T22:24:47;54.60;;;22.43;;
16181;SDS011;8197;51.664;7.114;2024-03-08T22:29:55;58.17;;;23.73;;
16181;SDS011;8197;51.664;7.114;2024-03-08T22:34:58;60.03;;;25.60;;
16181;SDS011;8197;51.664;7.114;2024-03-08T22:40:04;59.63;;;24.47;;
16181;SDS011;8197;51.664;7.114;2024-03-08T22:45:13;57.93;;;24.00;;
16181;SDS011;8197;51.664;7.114;2024-03-08T22:50:16;57.07;;;23.00;;
16181;SDS011;8197;51.664;7.114;2024-03-08T22:55:20;60.13;;;25.57;;
16181;SDS011;8197;51.664;7.114;2024-03-08T23:00:26;60.33;;;24.60;;
16181;SDS011;8197;51.664;7.114;2024-03-08T23:05:55;64.63;;;25.00;;
16181;SDS011;8197;51.664;7.114;2024-03-08T23:10:59;56.30;;;24.70;;
16181;SDS011;8197;51.664;7.114;2024-03-08T23:16:07;61.00;;;25.60;;
16181;SDS011;8197;51.664;7.114;2024-03-08T23:21:10;62.37;;;26.33;;
16181;SDS011;8197;51.664;7.114;2024-03-08T23:26:14;62.00;;;25.33;;
16181;SDS011;8197;51.664;7.114;2024-03-08T23:31:19;57.83;;;24.27;;
16181;SDS011;8197;51.664;7.114;2024-03-08T23:36:23;55.57;;;24.47;;
16181;SDS011;8197;51.664;7.114;2024-03-08T23:41:25;55.87;;;24.77;;
16181;SDS011;8197;51.664;7.114;2024-03-08T23:46:31;51.87;;;20.83;;
16181;SDS011;8197;51.664;7.114;2024-03-08T23:51:36;64.27;;;26.47;;
16181;SDS011;8197;51.664;7.114;2024-03-08T23:56:39;51.37;;;20.77;;
